Time;durP1;ratioP1;P1;durP2;ratioP2;P2;SDS_P1;SDS_P2;PMS_P1;PMS_P2;Temp;Humidity;BMP_temperature;BMP_pressure;BME280_temperature;BME280_humidity;BME280_pressure;Samples;Min_cycle;Max_cycle;Signal;HPM_P1;HPM_P2
2021/12/12 00:01:02;;;;;;;16.90;7.55;;;;;;;;;;5012548;28;20022;-83
2021/12/12 00:03:38;;;;;;;16.35;7.10;;;;;;;;;;5012813;28;20569;-83
2021/12/12 00:06:11;;;;;;;19.42;7.05;;;;;;;;;;5012115;28;20433;-83
2021/12/12 00:08:38;;;;;;;17.70;7.63;;;;;;;;;;5010729;28;20026;-83
2021/12/12 00:11:09;;;;;;;19.77;7.63;;;;;;;;;;4995118;28;20042;-84
2021/12/12 00:13:40;;;;;;;16.60;6.80;;;;;;;;;;4992375;28;20041;-84
2021/12/12 00:16:06;;;;;;;13.68;7.20;;;;;;;;;;4974465;28;20038;-82
2021/12/12 00:18:31;;;;;;;17.17;6.93;;;;;;;;;;4972465;28;20037;-83
2021/12/12 00:20:57;;;;;;;15.15;6.85;;;;;;;;;;4975764;28;20018;-85
2021/12/12 00:23:23;;;;;;;16.58;7.25;;;;;;;;;;4985117;28;20101;-83
2021/12/12 00:25:52;;;;;;;13.88;7.00;;;;;;;;;;4975091;28;20121;-84
2021/12/12 00:28:19;;;;;;;16.35;7.50;;;;;;;;;;4991480;28;20030;-83
2021/12/12 00:30:47;;;;;;;21.42;7.95;;;;;;;;;;4974719;28;20023;-84
2021/12/12 00:33:13;;;;;;;18.17;7.10;;;;;;;;;;4993295;28;20095;-84
2021/12/12 00:35:39;;;;;;;18.35;6.85;;;;;;;;;;4999037;28;20639;-83
2021/12/12 00:38:11;;;;;;;17.17;8.05;;;;;;;;;;4993732;28;20394;-84
2021/12/12 00:40:43;;;;;;;19.23;7.55;;;;;;;;;;4992511;28;20077;-84
2021/12/12 00:43:26;;;;;;;17.17;7.50;;;;;;;;;;4994925;28;20045;-84
2021/12/12 00:46:00;;;;;;;15.07;6.82;;;;;;;;;;4976754;28;20088;-84
2021/12/12 00:48:28;;;;;;;14.68;7.00;;;;;;;;;;4993251;28;20125;-82
2021/12/12 00:50:55;;;;;;;19.02;7.38;;;;;;;;;;4976266;28;20037;-83
2021/12/12 00:53:22;;;;;;;17.45;7.75;;;;;;;;;;4975937;28;20022;-84
2021/12/12 00:55:49;;;;;;;18.45;6.80;;;;;;;;;;4994136;28;20037;-84
2021/12/12 00:58:16;;;;;;;16.75;7.50;;;;;;;;;;4971605;28;20031;-84
2021/12/12 01:00:53;;;;;;;18.27;7.07;;;;;;;;;;4974515;28;20034;-84
2021/12/12 01:03:27;;;;;;;15.73;6.80;;;;;;;;;;4972860;28;20026;-83
2021/12/12 01:05:57;;;;;;;19.10;6.82;;;;;;;;;;4975418;28;20045;-83
2021/12/12 01:08:23;;;;;;;17.17;7.20;;;;;;;;;;4996582;28;20046;-84
2021/12/12 01:10:55;;;;;;;14.50;6.68;;;;;;;;;;4992846;28;20136;-84
2021/12/12 01:13:22;;;;;;;17.25;6.30;;;;;;;;;;5015516;28;20029;-84
2021/12/12 01:15:53;;;;;;;17.30;6.30;;;;;;;;;;5013203;28;20025;-85
2021/12/12 01:18:23;;;;;;;16.63;6.50;;;;;;;;;;4994865;28;20109;-84
2021/12/12 01:20:59;;;;;;;13.70;5.72;;;;;;;;;;4992368;28;20030;-84
2021/12/12 01:23:31;;;;;;;15.13;6.32;;;;;;;;;;5011668;28;20037;-82
2021/12/12 01:25:58;;;;;;;19.58;6.68;;;;;;;;;;5013711;28;20032;-83
2021/12/12 01:28:28;;;;;;;15.70;5.95;;;;;;;;;;5010572;28;22613;-85
2021/12/12 01:30:57;;;;;;;18.98;6.50;;;;;;;;;;4996185;28;20049;-82
2021/12/12 01:33:36;;;;;;;17.02;6.80;;;;;;;;;;5011087;28;20051;-84
2021/12/12 01:36:05;;;;;;;15.40;5.95;;;;;;;;;;5009952;28;20025;-84
2021/12/12 01:38:51;;;;;;;14.57;6.00;;;;;;;;;;5019593;28;20021;-82
2021/12/12 01:41:17;;;;;;;12.95;6.10;;;;;;;;;;5016467;28;20480;-85
2021/12/12 01:43:46;;;;;;;11.18;5.90;;;;;;;;;;4999157;28;20026;-84
2021/12/12 01:46:19;;;;;;;19.73;6.30;;;;;;;;;;5004698;28;20030;-83
2021/12/12 01:48:47;;;;;;;;;;;;;;;;;;5016380;28;20057;-85
2021/12/12 01:51:14;;;;;;;16.92;5.85;;;;;;;;;;5010839;28;20008;-82
2021/12/12 01:53:44;;;;;;;16.50;6.10;;;;;;;;;;5009313;28;20477;-82
2021/12/12 01:56:17;;;;;;;15.30;6.35;;;;;;;;;;4993886;28;20033;-82
2021/12/12 01:58:46;;;;;;;15.20;6.82;;;;;;;;;;5009274;28;20029;-83
2021/12/12 02:01:18;;;;;;;17.55;6.90;;;;;;;;;;5012662;28;20446;-82
2021/12/12 02:03:48;;;;;;;14.82;5.82;;;;;;;;;;5019170;28;20485;-84
2021/12/12 02:06:16;;;;;;;14.98;6.35;;;;;;;;;;5009839;28;20034;-85
2021/12/12 02:08:42;;;;;;;16.23;6.80;;;;;;;;;;5013331;28;20083;-84
2021/12/12 02:11:17;;;;;;;13.65;6.38;;;;;;;;;;4995226;28;20043;-85
2021/12/12 02:13:47;;;;;;;13.80;6.22;;;;;;;;;;4980335;28;20026;-84
2021/12/12 02:16:13;;;;;;;16.92;6.65;;;;;;;;;;4989525;28;20031;-83
2021/12/12 02:18:45;;;;;;;17.73;6.18;;;;;;;;;;4991843;28;20030;-83
2021/12/12 02:21:26;;;;;;;22.88;6.68;;;;;;;;;;4993583;28;20026;-85
2021/12/12 02:35:13;;;;;;;14.82;6.28;;;;;;;;;;5004346;28;20036;-82
2021/12/12 02:37:41;;;;;;;16.60;6.18;;;;;;;;;;4992926;28;20059;-85
2021/12/12 02:40:15;;;;;;;15.75;6.90;;;;;;;;;;4992005;28;20030;-85
2021/12/12 02:42:41;;;;;;;13.52;6.07;;;;;;;;;;4993214;28;20029;-84
2021/12/12 02:45:09;;;;;;;16.92;6.60;;;;;;;;;;4999337;28;20026;-86
2021/12/12 02:47:35;;;;;;;18.10;6.95;;;;;;;;;;4997065;28;22485;-84
2021/12/12 02:50:17;;;;;;;17.98;6.80;;;;;;;;;;4995064;28;20030;-82
2021/12/12 02:52:58;;;;;;;19.15;6.10;;;;;;;;;;4978636;28;20038;-85
2021/12/12 02:55:31;;;;;;;15.38;6.30;;;;;;;;;;4998021;28;20117;-82
2021/12/12 02:58:00;;;;;;;14.93;6.63;;;;;;;;;;4994249;28;20026;-84
2021/12/12 03:00:29;;;;;;;14.50;6.15;;;;;;;;;;4995194;28;20469;-81
2021/12/12 03:02:59;;;;;;;13.15;5.63;;;;;;;;;;4995038;28;20022;-84
2021/12/12 03:05:32;;;;;;;15.88;6.60;;;;;;;;;;5002899;28;20029;-82
2021/12/12 03:07:58;;;;;;;16.05;5.88;;;;;;;;;;4997177;28;20053;-83
2021/12/12 03:10:34;;;;;;;19.88;5.80;;;;;;;;;;5002946;28;20073;-84
2021/12/12 03:13:00;;;;;;;15.52;5.80;;;;;;;;;;4993894;28;20434;-84
2021/12/12 03:15:29;;;;;;;14.93;6.30;;;;;;;;;;4996268;28;20042;-84
2021/12/12 03:17:59;;;;;;;16.70;6.10;;;;;;;;;;4979996;28;20054;-84
2021/12/12 03:20:31;;;;;;;16.58;6.38;;;;;;;;;;4977266;28;20023;-85
2021/12/12 03:23:00;;;;;;;19.03;6.83;;;;;;;;;;4994071;28;20073;-86
2021/12/12 03:25:29;;;;;;;14.75;6.80;;;;;;;;;;4991711;28;20030;-82
2021/12/12 03:27:55;;;;;;;13.63;6.30;;;;;;;;;;4996997;28;20022;-83
2021/12/12 03:30:21;;;;;;;17.65;6.03;;;;;;;;;;4978733;28;22372;-82
2021/12/12 03:32:46;;;;;;;15.43;6.72;;;;;;;;;;4995233;28;20030;-84
2021/12/12 03:35:12;;;;;;;13.60;6.40;;;;;;;;;;4998445;28;20042;-84
2021/12/12 03:37:39;;;;;;;15.27;6.45;;;;;;;;;;4996568;28;20057;-81
2021/12/12 03:40:22;;;;;;;17.58;7.28;;;;;;;;;;4993527;28;20030;-84
2021/12/12 03:42:50;;;;;;;16.50;6.80;;;;;;;;;;4992037;28;20121;-84
2021/12/12 03:45:17;;;;;;;17.42;6.78;;;;;;;;;;4976689;28;20181;-82
2021/12/12 03:47:49;;;;;;;16.30;7.13;;;;;;;;;;4992557;28;20030;-84
2021/12/12 03:50:20;;;;;;;16.80;7.22;;;;;;;;;;4982302;28;20039;-83
2021/12/12 03:52:46;;;;;;;14.57;6.93;;;;;;;;;;4992982;28;20042;-84
2021/12/12 03:55:14;;;;;;;11.98;6.35;;;;;;;;;;4995225;28;20150;-82
2021/12/12 03:57:39;;;;;;;15.13;7.18;;;;;;;;;;4993950;28;20061;-83
2021/12/12 04:00:11;;;;;;;15.70;7.45;;;;;;;;;;4994510;28;20023;-84
2021/12/12 04:02:37;;;;;;;13.43;6.28;;;;;;;;;;4974980;28;20201;-84
2021/12/12 04:05:03;;;;;;;15.48;6.93;;;;;;;;;;4978054;28;20022;-82
2021/12/12 04:07:29;;;;;;;14.90;6.32;;;;;;;;;;4994958;28;20022;-84
2021/12/12 04:09:57;;;;;;;10.13;6.13;;;;;;;;;;4984641;28;20440;-87
2021/12/12 04:12:23;;;;;;;10.63;6.10;;;;;;;;;;5009026;28;20041;-84
2021/12/12 04:14:51;;;;;;;12.70;6.20;;;;;;;;;;4996461;28;20026;-84
2021/12/12 04:17:22;;;;;;;10.00;5.80;;;;;;;;;;5012213;28;20022;-87
2021/12/12 04:19:50;;;;;;;12.95;6.07;;;;;;;;;;5014222;28;20037;-82
2021/12/12 04:22:15;;;;;;;16.35;6.30;;;;;;;;;;5015005;28;20064;-87
2021/12/12 04:24:47;;;;;;;13.15;6.50;;;;;;;;;;5017204;28;20030;-84
2021/12/12 04:27:14;;;;;;;12.77;6.05;;;;;;;;;;5013551;28;20374;-82
2021/12/12 04:29:43;;;;;;;13.93;6.13;;;;;;;;;;5011939;28;20029;-87
2021/12/12 04:32:12;;;;;;;12.65;6.80;;;;;;;;;;5013558;28;20034;-88
2021/12/12 04:34:42;;;;;;;14.43;6.32;;;;;;;;;;5010320;28;20171;-87
2021/12/12 04:37:08;;;;;;;9.30;5.90;;;;;;;;;;5013807;28;20030;-83
2021/12/12 04:39:38;;;;;;;13.80;6.50;;;;;;;;;;5014727;28;20041;-87
2021/12/12 04:42:14;;;;;;;13.00;6.70;;;;;;;;;;5010508;28;20129;-84
2021/12/12 04:44:41;;;;;;;12.02;5.70;;;;;;;;;;5014260;28;20536;-83
2021/12/12 04:50:40;;;;;;;11.25;5.53;;;;;;;;;;5015599;28;20524;-84
2021/12/12 04:53:24;;;;;;;12.50;6.07;;;;;;;;;;5017135;28;20080;-84
2021/12/12 04:56:17;;;;;;;13.18;5.63;;;;;;;;;;5009427;28;20049;-84
2021/12/12 04:58:48;;;;;;;11.93;5.95;;;;;;;;;;4987563;28;20069;-87
2021/12/12 05:01:22;;;;;;;10.25;5.60;;;;;;;;;;4997689;28;20485;-82
2021/12/12 05:03:56;;;;;;;9.98;5.70;;;;;;;;;;5012495;28;20527;-84
2021/12/12 05:06:42;;;;;;;12.68;6.28;;;;;;;;;;5014182;28;20093;-82
2021/12/12 05:09:40;;;;;;;9.68;5.63;;;;;;;;;;5011421;28;20137;-83
2021/12/12 05:12:22;;;;;;;12.63;5.85;;;;;;;;;;5004783;28;20037;-82
2021/12/12 05:14:55;;;;;;;13.23;5.95;;;;;;;;;;4996006;28;20026;-87
2021/12/12 05:17:26;;;;;;;10.10;6.05;;;;;;;;;;4997126;28;20025;-84
2021/12/12 05:19:55;;;;;;;11.70;6.03;;;;;;;;;;5009721;28;20028;-83
2021/12/12 05:22:34;;;;;;;10.43;5.75;;;;;;;;;;5018772;28;20400;-84
2021/12/12 05:25:03;;;;;;;9.70;5.50;;;;;;;;;;5014848;28;20022;-84
2021/12/12 05:27:31;;;;;;;13.02;5.90;;;;;;;;;;5012553;28;20025;-84
2021/12/12 05:30:19;;;;;;;12.00;5.70;;;;;;;;;;5012930;28;20022;-87
2021/12/12 05:32:47;;;;;;;9.63;5.43;;;;;;;;;;5011759;28;20041;-82
2021/12/12 05:35:15;;;;;;;10.95;6.00;;;;;;;;;;5013200;28;20041;-84
2021/12/12 05:37:41;;;;;;;9.82;5.47;;;;;;;;;;5011419;28;20432;-83
2021/12/12 05:40:09;;;;;;;13.63;5.78;;;;;;;;;;5010320;28;20029;-84
2021/12/12 05:42:37;;;;;;;10.88;5.25;;;;;;;;;;5011370;28;20041;-86
2021/12/12 05:45:05;;;;;;;12.90;5.63;;;;;;;;;;5012993;28;20057;-87
2021/12/12 05:47:30;;;;;;;9.77;6.07;;;;;;;;;;5015639;28;20026;-82
2021/12/12 05:49:57;;;;;;;9.90;5.90;;;;;;;;;;5011291;28;20509;-87
2021/12/12 05:52:23;;;;;;;10.23;5.93;;;;;;;;;;5012471;28;20030;-82
2021/12/12 05:54:51;;;;;;;11.98;5.68;;;;;;;;;;4998043;28;20029;-83
2021/12/12 05:57:22;;;;;;;11.10;6.07;;;;;;;;;;4996975;28;20026;-86
2021/12/12 05:59:49;;;;;;;11.23;5.82;;;;;;;;;;5016228;28;20088;-82
2021/12/12 06:02:16;;;;;;;10.35;5.68;;;;;;;;;;5013638;28;20045;-87
2021/12/12 06:04:41;;;;;;;12.95;5.88;;;;;;;;;;4997941;28;20116;-87
2021/12/12 06:07:10;;;;;;;8.95;6.15;;;;;;;;;;5022786;28;20068;-84
2021/12/12 06:09:37;;;;;;;11.80;5.82;;;;;;;;;;5014674;28;20144;-84
2021/12/12 06:12:05;;;;;;;10.65;6.03;;;;;;;;;;5015411;28;20113;-87
2021/12/12 06:14:32;;;;;;;8.38;5.70;;;;;;;;;;5017006;28;20085;-87
2021/12/12 06:17:02;;;;;;;8.52;6.10;;;;;;;;;;5013105;28;20032;-87
2021/12/12 06:19:31;;;;;;;8.80;6.20;;;;;;;;;;4996025;28;20112;-84
2021/12/12 06:21:59;;;;;;;12.38;6.80;;;;;;;;;;5011371;28;20030;-82
2021/12/12 06:24:26;;;;;;;12.30;6.88;;;;;;;;;;4999612;28;20486;-84
2021/12/12 06:26:54;;;;;;;10.20;6.38;;;;;;;;;;5012298;28;20030;-84
2021/12/12 06:29:19;;;;;;;8.63;6.32;;;;;;;;;;5018212;28;20037;-84
2021/12/12 06:31:47;;;;;;;10.75;6.20;;;;;;;;;;5015314;28;20036;-83
2021/12/12 06:34:14;;;;;;;11.20;6.70;;;;;;;;;;5010341;28;20034;-83
2021/12/12 06:36:40;;;;;;;10.85;6.75;;;;;;;;;;5013634;28;20037;-84
2021/12/12 06:39:08;;;;;;;13.38;6.80;;;;;;;;;;5013467;28;20109;-82
2021/12/12 06:41:35;;;;;;;13.00;7.32;;;;;;;;;;5016001;28;20029;-84
2021/12/12 06:44:04;;;;;;;13.35;7.03;;;;;;;;;;5014432;28;20042;-82
2021/12/12 06:46:30;;;;;;;12.05;7.95;;;;;;;;;;5014892;28;20033;-82
2021/12/12 06:48:57;;;;;;;13.93;8.02;;;;;;;;;;5012406;28;20053;-87
2021/12/12 06:51:26;;;;;;;13.15;7.55;;;;;;;;;;4994481;28;20444;-82
2021/12/12 06:53:52;;;;;;;11.55;6.60;;;;;;;;;;5011676;28;20045;-83
2021/12/12 06:56:20;;;;;;;13.68;8.55;;;;;;;;;;5018289;28;20511;-84
2021/12/12 06:58:48;;;;;;;12.88;7.57;;;;;;;;;;5022974;28;20113;-86
2021/12/12 07:01:18;;;;;;;13.85;8.18;;;;;;;;;;4997676;28;20121;-82
2021/12/12 07:03:44;;;;;;;15.05;8.60;;;;;;;;;;5012106;28;20485;-83
2021/12/12 07:06:10;;;;;;;12.55;8.05;;;;;;;;;;5000886;28;20069;-87
2021/12/12 07:08:37;;;;;;;13.38;8.23;;;;;;;;;;5013312;28;21022;-82
2021/12/12 07:11:10;;;;;;;14.57;7.90;;;;;;;;;;5011416;28;20489;-87
2021/12/12 07:13:36;;;;;;;16.45;8.35;;;;;;;;;;5013934;28;20022;-87
2021/12/12 07:16:04;;;;;;;14.70;7.95;;;;;;;;;;5019735;28;20034;-85
2021/12/12 07:18:33;;;;;;;13.40;8.45;;;;;;;;;;5014705;28;20437;-84
2021/12/12 07:21:03;;;;;;;18.25;8.88;;;;;;;;;;5006954;28;20085;-87
2021/12/12 07:23:29;;;;;;;15.70;9.10;;;;;;;;;;5004864;28;20030;-87
2021/12/12 07:25:59;;;;;;;17.73;10.05;;;;;;;;;;5013680;28;20030;-87
2021/12/12 07:28:33;;;;;;;20.02;10.10;;;;;;;;;;5020713;28;20062;-86
2021/12/12 07:31:03;;;;;;;19.70;10.07;;;;;;;;;;5027356;28;20097;-83
2021/12/12 07:33:30;;;;;;;20.15;10.43;;;;;;;;;;5025664;28;20025;-86
2021/12/12 07:35:59;;;;;;;18.48;10.40;;;;;;;;;;4995227;28;20080;-83
2021/12/12 07:38:26;;;;;;;21.38;10.65;;;;;;;;;;5015485;28;20141;-83
2021/12/12 07:40:52;;;;;;;18.15;10.57;;;;;;;;;;5017622;28;20501;-82
2021/12/12 07:43:17;;;;;;;19.33;10.95;;;;;;;;;;5017929;28;20034;-82
2021/12/12 07:45:43;;;;;;;25.15;11.13;;;;;;;;;;5021488;28;20407;-82
2021/12/12 07:48:11;;;;;;;20.98;11.07;;;;;;;;;;5022992;28;20029;-86
2021/12/12 07:50:37;;;;;;;20.90;11.32;;;;;;;;;;5021639;28;20033;-83
2021/12/12 07:53:04;;;;;;;21.80;11.38;;;;;;;;;;5022146;28;20028;-84
2021/12/12 07:55:31;;;;;;;22.73;12.02;;;;;;;;;;5015581;28;20037;-84
2021/12/12 07:57:56;;;;;;;24.40;12.23;;;;;;;;;;5018873;28;20029;-84
2021/12/12 08:00:25;;;;;;;27.13;13.18;;;;;;;;;;5023248;28;20112;-86
2021/12/12 08:02:53;;;;;;;24.05;13.10;;;;;;;;;;5019267;28;20120;-82
2021/12/12 08:05:20;;;;;;;27.58;12.25;;;;;;;;;;5016666;28;20025;-87
2021/12/12 08:07:46;;;;;;;25.02;12.23;;;;;;;;;;5014064;28;20026;-83
2021/12/12 08:10:14;;;;;;;24.65;12.48;;;;;;;;;;5015864;28;20510;-85
2021/12/12 08:12:42;;;;;;;27.60;13.38;;;;;;;;;;4996597;28;20026;-83
2021/12/12 08:15:13;;;;;;;30.55;12.80;;;;;;;;;;5020153;28;20025;-85
2021/12/12 08:17:40;;;;;;;29.40;12.95;;;;;;;;;;5009925;28;20026;-82
2021/12/12 08:20:07;;;;;;;24.38;12.45;;;;;;;;;;5008542;28;20033;-84
2021/12/12 08:22:34;;;;;;;25.92;13.38;;;;;;;;;;5015303;28;20288;-87
2021/12/12 08:25:01;;;;;;;28.52;13.43;;;;;;;;;;5011383;28;20113;-84
2021/12/12 08:27:27;;;;;;;27.45;12.48;;;;;;;;;;5024112;28;20126;-82
2021/12/12 08:29:54;;;;;;;27.08;14.27;;;;;;;;;;5014822;28;20034;-84
2021/12/12 08:32:21;;;;;;;24.42;12.95;;;;;;;;;;5017712;28;20026;-87
2021/12/12 08:34:47;;;;;;;28.23;13.68;;;;;;;;;;5015030;28;20083;-85
2021/12/12 08:37:12;;;;;;;34.08;13.43;;;;;;;;;;5019958;28;20038;-84
2021/12/12 08:39:38;;;;;;;25.48;12.93;;;;;;;;;;5001758;28;20564;-85
2021/12/12 08:42:15;;;;;;;29.80;13.75;;;;;;;;;;5012228;28;20049;-83
2021/12/12 08:44:45;;;;;;;26.98;13.55;;;;;;;;;;5002102;28;20081;-86
2021/12/12 08:47:19;;;;;;;29.60;12.95;;;;;;;;;;5003832;28;20042;-83
2021/12/12 08:50:20;;;;;;;27.98;13.93;;;;;;;;;;5004875;28;20041;-83
2021/12/12 08:52:47;;;;;;;29.52;13.23;;;;;;;;;;4950153;28;20056;-85
2021/12/12 08:55:22;;;;;;;26.17;13.57;;;;;;;;;;4959303;28;20042;-88
2021/12/12 08:58:17;;;;;;;25.85;13.88;;;;;;;;;;4950289;29;20043;-84
2021/12/12 09:04:19;;;;;;;22.33;11.65;;;;;;;;;;4945005;28;20121;-83
2021/12/12 09:07:19;;;;;;;24.50;12.88;;;;;;;;;;4950257;28;20126;-85
2021/12/12 09:10:25;;;;;;;30.70;12.93;;;;;;;;;;5127495;22;20110;-82
2021/12/12 09:13:20;;;;;;;25.70;12.38;;;;;;;;;;5072443;28;20939;-83
2021/12/12 09:16:33;;;;;;;;;;;;;;;;;;;;;
2021/12/12 09:19:24;;;;;;;25.20;12.88;;;;;;;;;;5064879;28;20490;-83
2021/12/12 09:22:17;;;;;;;23.35;12.50;;;;;;;;;;5071825;28;20028;-81
2021/12/12 09:24:54;;;;;;;26.38;12.98;;;;;;;;;;5060865;28;20422;-87
2021/12/12 09:27:48;;;;;;;29.13;13.10;;;;;;;;;;5060238;28;20025;-88
2021/12/12 09:30:16;;;;;;;28.55;13.13;;;;;;;;;;5068627;28;20039;-84
2021/12/12 09:32:45;;;;;;;27.65;13.35;;;;;;;;;;5060263;28;20175;-86
2021/12/12 09:35:18;;;;;;;25.88;12.35;;;;;;;;;;5068117;28;20020;-85
2021/12/12 09:37:46;;;;;;;25.15;13.23;;;;;;;;;;5065921;28;20488;-87
2021/12/12 09:40:22;;;;;;;21.98;11.85;;;;;;;;;;5070502;28;20021;-85
2021/12/12 09:43:17;;;;;;;23.83;11.90;;;;;;;;;;5070654;28;20024;-84
2021/12/12 09:46:26;;;;;;;26.08;12.45;;;;;;;;;;5065444;28;20032;-85
2021/12/12 09:52:37;;;;;;;21.42;10.73;;;;;;;;;;5067068;28;20032;-86
2021/12/12 09:55:21;;;;;;;21.63;11.35;;;;;;;;;;5059256;28;20032;-85
2021/12/12 09:58:00;;;;;;;;;;;;;;;;;;5068139;28;20029;-85
2021/12/12 10:00:40;;;;;;;21.52;10.02;;;;;;;;;;5069368;28;19912;-85
2021/12/12 10:03:37;;;;;;;20.92;10.50;;;;;;;;;;5063844;28;20028;-83
2021/12/12 10:06:16;;;;;;;19.55;10.82;;;;;;;;;;5059687;28;20021;-84
2021/12/12 10:09:07;;;;;;;21.42;11.00;;;;;;;;;;5075400;28;20455;-81
2021/12/12 10:11:59;;;;;;;23.52;10.45;;;;;;;;;;5078333;28;20078;-85
2021/12/12 10:14:32;;;;;;;19.70;11.13;;;;;;;;;;5068077;28;20073;-82
2021/12/12 10:17:12;;;;;;;23.50;11.52;;;;;;;;;;5074322;28;20040;-82
2021/12/12 10:19:41;;;;;;;22.48;11.07;;;;;;;;;;5072410;28;20027;-80
2021/12/12 10:22:18;;;;;;;20.83;11.00;;;;;;;;;;5077785;28;20390;-85
2021/12/12 10:25:05;;;;;;;23.05;11.20;;;;;;;;;;5071993;28;20048;-81
2021/12/12 10:27:56;;;;;;;23.35;11.43;;;;;;;;;;5069636;28;20024;-84
2021/12/12 10:30:24;;;;;;;21.13;11.02;;;;;;;;;;5052919;28;20033;-84
2021/12/12 10:33:12;;;;;;;24.73;12.07;;;;;;;;;;5073342;28;20040;-80
2021/12/12 10:35:52;;;;;;;22.10;11.32;;;;;;;;;;5083572;28;20500;-88
2021/12/12 10:38:24;;;;;;;23.25;12.43;;;;;;;;;;5056606;28;20024;-85
2021/12/12 10:41:08;;;;;;;25.65;12.85;;;;;;;;;;5073120;28;20036;-82
2021/12/12 10:43:38;;;;;;;22.15;12.25;;;;;;;;;;5068201;28;20103;-84
2021/12/12 10:46:21;;;;;;;18.92;10.95;;;;;;;;;;5060542;28;20023;-82
2021/12/12 10:49:19;;;;;;;23.38;11.38;;;;;;;;;;5070849;28;20020;-84
2021/12/12 10:52:10;;;;;;;20.90;10.95;;;;;;;;;;5053934;28;20109;-88
2021/12/12 10:54:54;;;;;;;19.60;10.57;;;;;;;;;;5068148;28;20032;-84
2021/12/12 10:57:24;;;;;;;17.17;10.10;;;;;;;;;;5081429;28;20032;-80
2021/12/12 11:00:12;;;;;;;17.95;10.10;;;;;;;;;;5063314;28;20062;-86
2021/12/12 11:03:06;;;;;;;17.33;10.15;;;;;;;;;;5084862;28;20395;-86
2021/12/12 11:05:40;;;;;;;19.55;9.32;;;;;;;;;;5072502;28;20024;-83
2021/12/12 11:08:30;;;;;;;16.40;9.93;;;;;;;;;;5070953;28;20031;-81
2021/12/12 11:10:58;;;;;;;17.40;9.52;;;;;;;;;;5089634;28;20499;-80
2021/12/12 11:13:38;;;;;;;18.15;10.20;;;;;;;;;;5086396;28;20032;-79
2021/12/12 11:16:20;;;;;;;19.77;10.60;;;;;;;;;;5090349;28;20047;-85
2021/12/12 11:19:12;;;;;;;22.08;11.05;;;;;;;;;;5088705;28;20506;-82
2021/12/12 11:21:44;;;;;;;19.65;11.20;;;;;;;;;;5094498;28;20473;-82
2021/12/12 11:24:22;;;;;;;21.92;10.40;;;;;;;;;;5094461;28;20039;-83
2021/12/12 11:26:58;;;;;;;19.77;10.68;;;;;;;;;;5090862;28;20369;-79
2021/12/12 11:29:49;;;;;;;21.33;9.93;;;;;;;;;;5097548;28;20084;-88
2021/12/12 11:32:21;;;;;;;19.23;11.32;;;;;;;;;;5085474;28;22980;-83
2021/12/12 11:34:49;;;;;;;20.80;11.38;;;;;;;;;;5085433;28;20031;-82
2021/12/12 11:37:19;;;;;;;19.17;9.77;;;;;;;;;;5089112;28;20024;-83
2021/12/12 11:39:58;;;;;;;21.98;11.15;;;;;;;;;;5090097;28;20513;-82
2021/12/12 11:42:28;;;;;;;18.40;10.93;;;;;;;;;;5091240;28;20104;-82
2021/12/12 11:45:08;;;;;;;21.55;11.52;;;;;;;;;;5094704;28;21737;-88
2021/12/12 11:47:46;;;;;;;21.73;11.90;;;;;;;;;;5091171;28;20115;-80
2021/12/12 11:50:29;;;;;;;18.75;11.07;;;;;;;;;;5091788;28;20036;-89
2021/12/12 11:53:01;;;;;;;22.02;11.63;;;;;;;;;;5078972;28;20056;-83
2021/12/12 11:55:48;;;;;;;19.27;11.02;;;;;;;;;;5094759;28;20028;-83
2021/12/12 11:58:38;;;;;;;20.13;10.38;;;;;;;;;;5084733;28;20029;-80
2021/12/12 12:01:08;;;;;;;19.63;11.13;;;;;;;;;;5090964;28;20023;-83
2021/12/12 12:03:56;;;;;;;19.35;10.98;;;;;;;;;;5083330;28;20036;-84
2021/12/12 12:06:28;;;;;;;21.70;11.85;;;;;;;;;;5093206;28;20110;-88
2021/12/12 12:09:27;;;;;;;24.25;11.95;;;;;;;;;;5088843;28;20115;-83
2021/12/12 12:12:13;;;;;;;19.15;10.85;;;;;;;;;;5044223;28;20036;-87
2021/12/12 12:15:03;;;;;;;19.50;11.75;;;;;;;;;;5056879;28;20028;-89
2021/12/12 12:17:50;;;;;;;21.08;12.63;;;;;;;;;;5056379;28;20771;-82
2021/12/12 12:20:30;;;;;;;20.88;12.27;;;;;;;;;;5069864;28;20070;-83
2021/12/12 12:23:31;;;;;;;22.90;11.00;;;;;;;;;;5048919;28;20031;-80
2021/12/12 12:28:56;;;;;;;21.40;12.60;;;;;;;;;;5073417;28;20097;-85
2021/12/12 12:31:34;;;;;;;22.70;12.35;;;;;;;;;;5051210;28;20037;-83
2021/12/12 12:34:37;;;;;;;20.23;12.00;;;;;;;;;;5053347;28;20465;-81
2021/12/12 12:37:40;;;;;;;22.60;13.77;;;;;;;;;;5053442;28;20031;-84
2021/12/12 12:40:43;;;;;;;19.63;12.63;;;;;;;;;;5047470;28;20067;-84
2021/12/12 12:43:46;;;;;;;21.70;13.05;;;;;;;;;;5069894;28;20613;-83
2021/12/12 12:46:49;;;;;;;22.20;13.40;;;;;;;;;;5058490;28;20123;-82
2021/12/12 12:49:50;;;;;;;;;;;;;;;;;;;;;
2021/12/12 12:52:53;;;;;;;18.27;11.00;;;;;;;;;;5069767;28;20033;-82
2021/12/12 12:55:24;;;;;;;19.85;12.10;;;;;;;;;;5050534;28;20020;-83
2021/12/12 12:57:53;;;;;;;17.45;11.63;;;;;;;;;;5048300;28;20056;-84
2021/12/12 13:00:22;;;;;;;21.48;12.10;;;;;;;;;;5055439;28;20024;-85
2021/12/12 13:03:02;;;;;;;18.83;11.77;;;;;;;;;;5078591;28;20036;-82
2021/12/12 13:06:00;;;;;;;17.67;11.05;;;;;;;;;;5066709;28;20064;-84
2021/12/12 13:08:50;;;;;;;19.90;11.38;;;;;;;;;;5052467;28;20139;-89
2021/12/12 13:11:41;;;;;;;20.33;11.57;;;;;;;;;;5090532;28;20399;-82
2021/12/12 13:14:12;;;;;;;18.98;11.63;;;;;;;;;;5070111;28;20043;-83
2021/12/12 13:17:14;;;;;;;19.65;11.10;;;;;;;;;;5075049;28;20031;-92
2021/12/12 13:20:01;;;;;;;20.85;11.25;;;;;;;;;;5072445;28;20034;-85
2021/12/12 13:22:43;;;;;;;19.05;11.50;;;;;;;;;;5091098;28;20095;-80
2021/12/12 13:25:19;;;;;;;21.10;11.93;;;;;;;;;;5073500;28;20056;-85
2021/12/12 13:28:18;;;;;;;19.27;11.82;;;;;;;;;;5071313;28;20039;-84
2021/12/12 13:31:01;;;;;;;19.40;11.57;;;;;;;;;;5071921;28;20024;-83
2021/12/12 13:33:33;;;;;;;19.83;11.85;;;;;;;;;;5073264;28;20031;-85
2021/12/12 13:36:01;;;;;;;19.00;11.63;;;;;;;;;;5073333;28;20030;-83
2021/12/12 13:38:49;;;;;;;18.75;12.45;;;;;;;;;;5074516;28;20099;-88
2021/12/12 13:41:29;;;;;;;18.13;11.85;;;;;;;;;;5070971;28;20020;-80
2021/12/12 13:44:03;;;;;;;19.80;11.70;;;;;;;;;;5074399;28;20020;-83
2021/12/12 13:46:47;;;;;;;18.75;11.73;;;;;;;;;;5074131;28;20043;-81
2021/12/12 13:49:23;;;;;;;19.98;11.93;;;;;;;;;;5065792;28;20126;-82
2021/12/12 13:51:48;;;;;;;20.77;12.23;;;;;;;;;;5072144;28;20623;-79
2021/12/12 13:54:41;;;;;;;19.77;11.73;;;;;;;;;;5068678;28;20059;-83
2021/12/12 13:57:09;;;;;;;19.23;11.32;;;;;;;;;;5073009;28;20016;-89
2021/12/12 13:59:58;;;;;;;17.95;11.38;;;;;;;;;;5073527;28;20119;-81
2021/12/12 14:02:24;;;;;;;19.45;11.85;;;;;;;;;;5066904;28;20111;-80
2021/12/12 14:05:13;;;;;;;20.42;12.88;;;;;;;;;;5071498;28;20609;-91
2021/12/12 14:07:48;;;;;;;20.52;12.30;;;;;;;;;;5064321;28;20024;-83
2021/12/12 14:10:28;;;;;;;21.23;12.23;;;;;;;;;;5071831;28;20040;-81
2021/12/12 14:13:10;;;;;;;19.90;12.02;;;;;;;;;;5077432;28;20051;-81
2021/12/12 14:15:40;;;;;;;19.70;12.25;;;;;;;;;;5089586;28;20020;-80
2021/12/12 14:18:10;;;;;;;21.42;12.40;;;;;;;;;;5087186;28;20386;-90
2021/12/12 14:20:41;;;;;;;20.67;12.60;;;;;;;;;;5082919;28;20400;-84
2021/12/12 14:23:12;;;;;;;21.55;13.10;;;;;;;;;;5085418;28;20020;-82
2021/12/12 14:25:44;;;;;;;22.58;13.93;;;;;;;;;;5081309;28;20028;-84
2021/12/12 14:28:10;;;;;;;21.63;12.55;;;;;;;;;;5088253;28;20036;-83
2021/12/12 14:30:39;;;;;;;21.17;13.00;;;;;;;;;;5092179;28;20102;-79
2021/12/12 14:33:15;;;;;;;23.55;13.65;;;;;;;;;;5089452;28;20036;-84
2021/12/12 14:35:43;;;;;;;24.42;13.30;;;;;;;;;;5091359;28;20020;-86
2021/12/12 14:38:10;;;;;;;25.38;13.93;;;;;;;;;;5091627;28;20024;-83
2021/12/12 14:40:42;;;;;;;22.38;14.18;;;;;;;;;;5091470;28;20081;-83
2021/12/12 14:43:36;;;;;;;24.25;14.32;;;;;;;;;;5087519;28;20027;-89
2021/12/12 14:46:36;;;;;;;22.10;12.88;;;;;;;;;;5082177;28;20027;-88
2021/12/12 14:49:06;;;;;;;21.48;13.02;;;;;;;;;;5079259;28;20032;-89
2021/12/12 14:51:42;;;;;;;24.85;14.25;;;;;;;;;;5092303;28;20415;-88
2021/12/12 14:54:12;;;;;;;21.00;13.55;;;;;;;;;;5092893;28;20028;-81
2021/12/12 14:56:46;;;;;;;23.88;13.48;;;;;;;;;;5094749;28;20031;-90
2021/12/12 14:59:22;;;;;;;23.25;13.68;;;;;;;;;;5093781;28;20036;-84
2021/12/12 15:01:51;;;;;;;24.30;13.70;;;;;;;;;;5087333;28;20031;-79
2021/12/12 15:04:20;;;;;;;23.58;14.07;;;;;;;;;;5106791;28;20394;-84
2021/12/12 15:06:51;;;;;;;25.60;14.63;;;;;;;;;;5093148;28;20034;-87
2021/12/12 15:09:39;;;;;;;27.20;15.00;;;;;;;;;;5091328;28;20024;-82
2021/12/12 15:12:29;;;;;;;23.05;13.38;;;;;;;;;;5088276;28;20373;-82
2021/12/12 15:15:06;;;;;;;25.77;14.45;;;;;;;;;;5092918;28;20015;-89
2021/12/12 15:17:33;;;;;;;25.80;14.80;;;;;;;;;;5084698;28;20028;-82
2021/12/12 15:20:10;;;;;;;25.67;14.50;;;;;;;;;;5087663;28;20055;-82
2021/12/12 15:22:46;;;;;;;26.02;15.40;;;;;;;;;;5087890;28;20050;-84
2021/12/12 15:25:20;;;;;;;25.67;15.07;;;;;;;;;;5087083;28;20051;-84
2021/12/12 15:27:49;;;;;;;23.48;14.25;;;;;;;;;;5087610;28;20510;-90
2021/12/12 15:30:29;;;;;;;28.63;16.67;;;;;;;;;;5091281;28;20024;-81
2021/12/12 15:32:58;;;;;;;30.75;17.85;;;;;;;;;;5082518;28;20503;-80